createdAt,value
2023-03-14T00:02:25.252Z,756.00
2023-03-14T00:07:24.417Z,749.00
2023-03-14T00:12:23.615Z,743.00
2023-03-14T00:17:22.854Z,737.00
2023-03-14T00:22:22.046Z,730.00
2023-03-14T00:27:21.239Z,726.00
2023-03-14T00:32:21.456Z,713.00
2023-03-14T00:37:20.626Z,698.00
2023-03-14T00:42:18.784Z,699.00
2023-03-14T00:47:18.977Z,680.00
2023-03-14T00:52:18.141Z,680.00
2023-03-14T00:57:16.328Z,666.00
2023-03-14T01:02:16.479Z,660.00
2023-03-14T01:07:14.659Z,662.00
2023-03-14T01:12:13.829Z,641.00
2023-03-14T01:17:13.009Z,643.00
2023-03-14T01:22:12.180Z,629.00
2023-03-14T01:27:12.353Z,636.00
2023-03-14T01:32:10.509Z,637.00
2023-03-14T01:37:10.690Z,632.00
2023-03-14T01:42:08.941Z,633.00
2023-03-14T01:47:08.108Z,630.00
2023-03-14T01:52:09.284Z,622.00
2023-03-14T01:57:07.472Z,618.00
2023-03-14T02:02:06.650Z,608.00
2023-03-14T02:07:04.826Z,616.00
2023-03-14T02:12:04.004Z,616.00
2023-03-14T02:17:02.171Z,611.00
2023-03-14T02:22:02.388Z,607.00
2023-03-14T02:27:02.577Z,604.00
2023-03-14T02:32:00.849Z,600.00
2023-03-14T02:37:00.053Z,607.00
2023-03-14T02:41:59.234Z,608.00
2023-03-14T02:46:58.433Z,607.00
2023-03-14T02:51:57.654Z,606.00
2023-03-14T02:56:56.882Z,602.00
2023-03-14T03:01:57.114Z,600.00
2023-03-14T03:06:56.407Z,611.00
2023-03-14T03:11:54.723Z,610.00
2023-03-14T03:16:55.043Z,614.00
2023-03-14T03:21:53.186Z,614.00
2023-03-14T03:26:52.481Z,617.00
2023-03-14T03:31:52.796Z,607.00
2023-03-14T03:36:54.039Z,612.00
2023-03-14T03:41:52.379Z,606.00
2023-03-14T03:46:49.407Z,614.00
2023-03-14T03:51:49.712Z,623.00
2023-03-14T03:56:47.993Z,625.00
2023-03-14T04:01:47.307Z,624.00
2023-03-14T04:06:46.456Z,628.00
2023-03-14T04:11:45.596Z,632.00
2023-03-14T04:16:45.910Z,636.00
2023-03-14T04:21:46.208Z,628.00
2023-03-14T04:26:43.552Z,635.00
2023-03-14T04:31:42.745Z,630.00
2023-03-14T04:36:41.887Z,635.00
2023-03-14T04:41:41.005Z,635.00
2023-03-14T04:46:40.337Z,638.00
2023-03-14T04:51:38.429Z,636.00
2023-03-14T04:56:38.746Z,637.00
2023-03-14T05:01:38.048Z,641.00
2023-03-14T05:06:37.335Z,637.00
2023-03-14T05:11:36.628Z,640.00
2023-03-14T05:16:35.948Z,632.00
2023-03-14T05:21:35.276Z,646.00
2023-03-14T05:26:34.550Z,640.00
2023-03-14T05:31:33.879Z,636.00
2023-03-14T05:36:33.164Z,641.00
2023-03-14T05:41:32.467Z,641.00
2023-03-14T05:46:32.803Z,651.00
2023-03-14T05:51:30.986Z,649.00
2023-03-14T05:56:30.153Z,653.00
2023-03-14T06:01:29.342Z,658.00
2023-03-14T06:06:29.535Z,661.00
2023-03-14T06:11:28.686Z,657.00
2023-03-14T06:16:26.970Z,658.00
2023-03-14T06:21:26.135Z,667.00
2023-03-14T06:26:25.305Z,668.00
2023-03-14T06:31:24.526Z,667.00
2023-03-14T06:36:22.774Z,670.00
2023-03-14T06:41:24.033Z,669.00
2023-03-14T06:46:23.249Z,668.00
2023-03-14T06:51:22.494Z,671.00
2023-03-14T06:56:21.704Z,668.00
2023-03-14T07:01:19.931Z,675.00
2023-03-14T07:06:19.173Z,675.00
2023-03-14T07:11:18.413Z,677.00
2023-03-14T07:16:16.637Z,679.00
2023-03-14T07:21:16.847Z,667.00
2023-03-14T07:26:17.032Z,674.00
2023-03-14T07:31:15.254Z,673.00
2023-03-14T07:36:14.557Z,676.00
2023-03-14T07:41:13.745Z,683.00
2023-03-14T07:46:13.985Z,689.00
2023-03-14T07:51:12.169Z,681.00
2023-03-14T07:56:11.371Z,677.00
2023-03-14T08:01:11.612Z,677.00
2023-03-14T08:06:09.807Z,684.00
2023-03-14T08:11:11.023Z,742.00
2023-03-14T08:16:08.352Z,714.00
2023-03-14T08:21:07.415Z,706.00
2023-03-14T08:26:06.609Z,709.00
2023-03-14T08:31:05.908Z,707.00
2023-03-14T08:36:07.203Z,703.00
2023-03-14T08:41:04.433Z,701.00
2023-03-14T08:46:03.631Z,681.00
2023-03-14T08:51:02.798Z,694.00
2023-03-14T08:56:01.985Z,688.00
2023-03-14T09:01:01.175Z,689.00
2023-03-14T09:06:00.364Z,684.00
2023-03-14T09:11:00.531Z,685.00
2023-03-14T09:15:58.729Z,681.00
2023-03-14T09:20:59.904Z,677.00
2023-03-14T09:25:58.105Z,672.00
2023-03-14T09:30:57.290Z,679.00
2023-03-14T09:35:55.861Z,665.00
2023-03-14T09:40:53.661Z,667.00
2023-03-14T09:45:54.926Z,653.00
2023-03-14T09:50:55.112Z,656.00
2023-03-14T09:55:52.301Z,659.00
2023-03-14T10:00:51.574Z,651.00
2023-03-14T10:05:51.799Z,648.00
2023-03-14T10:10:50.001Z,655.00
2023-03-14T10:15:48.180Z,648.00
2023-03-14T10:20:49.418Z,641.00
2023-03-14T10:25:47.619Z,647.00
2023-03-14T10:30:46.856Z,640.00
2023-03-14T10:35:47.061Z,644.00
2023-03-14T10:40:45.245Z,636.00
2023-03-14T10:45:44.487Z,637.00
2023-03-14T10:50:44.693Z,630.00
2023-03-14T10:55:43.883Z,628.00
2023-03-14T11:00:42.045Z,636.00
2023-03-14T11:05:44.343Z,627.00
2023-03-14T11:10:40.514Z,629.00
2023-03-14T11:15:39.730Z,629.00
2023-03-14T11:20:38.932Z,632.00
2023-03-14T11:25:40.140Z,632.00
2023-03-14T11:30:38.332Z,630.00
2023-03-14T11:35:36.627Z,628.00
2023-03-14T11:40:35.667Z,623.00
2023-03-14T11:45:35.900Z,617.00
2023-03-14T11:50:37.185Z,615.00
2023-03-14T11:55:33.402Z,612.00
2023-03-14T12:00:33.775Z,606.00
2023-03-14T12:05:32.778Z,605.00
2023-03-14T12:10:33.416Z,606.00
2023-03-14T12:15:30.187Z,603.00
2023-03-14T12:20:30.377Z,605.00
2023-03-14T12:25:28.565Z,597.00
2023-03-14T12:30:27.746Z,597.00
2023-03-14T12:35:27.953Z,597.00
2023-03-14T12:40:28.125Z,596.00
2023-03-14T12:45:26.284Z,589.00
2023-03-14T12:50:24.474Z,590.00
2023-03-14T12:55:23.656Z,587.00
2023-03-14T13:00:23.858Z,582.00
2023-03-14T13:05:25.485Z,575.00
2023-03-14T13:10:21.358Z,573.00
2023-03-14T13:15:21.592Z,578.00
2023-03-14T13:20:18.771Z,575.00
2023-03-14T13:25:18.972Z,570.00
2023-03-14T13:30:18.185Z,571.00
2023-03-14T13:35:20.396Z,580.00
2023-03-14T13:40:17.647Z,575.00
2023-03-14T13:45:19.520Z,573.00
2023-03-14T13:50:15.209Z,570.00
2023-03-14T13:55:14.411Z,566.00
2023-03-14T14:00:13.611Z,575.00
2023-03-14T14:05:13.802Z,568.00
2023-03-14T14:10:12.008Z,569.00
2023-03-14T14:15:13.225Z,578.00
2023-03-14T14:20:11.396Z,566.00
2023-03-14T14:25:09.595Z,573.00
2023-03-14T14:30:09.785Z,575.00
2023-03-14T14:35:08.945Z,574.00
2023-03-14T14:40:07.109Z,575.00
2023-03-14T14:45:07.291Z,567.00
2023-03-14T14:50:07.500Z,568.00
2023-03-14T14:55:04.686Z,575.00
2023-03-14T15:00:03.877Z,576.00
2023-03-14T15:05:03.064Z,568.00
2023-03-14T15:10:02.254Z,576.00
2023-03-14T15:15:01.434Z,564.00
2023-03-14T15:20:01.624Z,576.00
2023-03-14T15:25:00.798Z,560.00
2023-03-14T15:30:00.001Z,571.00
2023-03-14T15:34:58.163Z,575.00
2023-03-14T15:39:57.331Z,573.00
2023-03-14T15:44:56.498Z,582.00
2023-03-14T15:49:55.662Z,591.00
2023-03-14T15:54:55.866Z,588.00
2023-03-14T15:59:54.037Z,584.00
2023-03-14T16:04:52.302Z,576.00
2023-03-14T16:09:53.525Z,577.00
2023-03-14T16:14:51.760Z,584.00
2023-03-14T16:19:51.062Z,587.00
2023-03-14T16:24:50.276Z,583.00
2023-03-14T16:29:51.499Z,581.00
2023-03-14T16:34:48.717Z,579.00
2023-03-14T16:40:10.394Z,581.00
2023-03-14T16:44:47.274Z,586.00
2023-03-14T16:49:46.544Z,587.00
2023-03-14T16:54:45.773Z,582.00
2023-03-14T16:59:44.988Z,583.00
2023-03-14T17:04:44.554Z,586.00
2023-03-14T17:09:44.776Z,583.00
2023-03-14T17:14:42.724Z,577.00
2023-03-14T17:19:43.917Z,580.00
2023-03-14T17:24:41.256Z,591.00
2023-03-14T17:29:41.364Z,589.00
2023-03-14T17:34:40.920Z,584.00
2023-03-14T17:39:39.790Z,587.00
2023-03-14T17:44:38.337Z,584.00
2023-03-14T17:49:39.604Z,585.00
2023-03-14T17:54:36.936Z,583.00
2023-03-14T17:59:36.197Z,586.00
2023-03-14T18:04:36.561Z,594.00
2023-03-14T18:09:34.578Z,597.00
2023-03-14T18:14:34.461Z,588.00
2023-03-14T18:19:33.047Z,581.00
2023-03-14T18:24:32.093Z,572.00
2023-03-14T18:29:32.503Z,582.00
2023-03-14T18:34:31.788Z,646.00
2023-03-14T18:39:32.032Z,644.00
2023-03-14T18:44:30.339Z,663.00
2023-03-14T18:49:33.741Z,687.00
2023-03-14T18:54:27.715Z,705.00
2023-03-14T18:59:27.961Z,736.00
2023-03-14T19:04:27.132Z,764.00
2023-03-14T19:09:25.343Z,775.00
2023-03-14T19:14:25.628Z,825.00
2023-03-14T19:19:28.157Z,828.00
2023-03-14T19:24:24.174Z,833.00
2023-03-14T19:29:24.424Z,867.00
2023-03-14T19:34:21.732Z,870.00
2023-03-14T19:39:21.721Z,881.00
2023-03-14T19:44:21.317Z,889.00
2023-03-14T19:49:20.626Z,877.00
2023-03-14T19:54:17.927Z,793.00
2023-03-14T19:59:18.967Z,884.00
2023-03-14T20:04:17.471Z,841.00
2023-03-14T20:09:17.471Z,834.00
2023-03-14T20:14:18.224Z,871.00
2023-03-14T20:19:15.652Z,880.00
2023-03-14T20:24:15.425Z,863.00
2023-03-14T20:29:14.744Z,920.00
2023-03-14T20:34:12.991Z,917.00
2023-03-14T20:39:11.842Z,917.00
2023-03-14T20:44:11.446Z,902.00
2023-03-14T20:49:10.699Z,898.00
2023-03-14T20:54:10.632Z,974.00
2023-03-14T20:59:09.066Z,920.00
2023-03-14T21:04:08.252Z,900.00
2023-03-14T21:09:07.194Z,923.00
2023-03-14T21:14:06.431Z,910.00
2023-03-14T21:19:05.596Z,928.00
2023-03-14T21:24:04.812Z,916.00
2023-03-14T21:29:03.989Z,906.00
2023-03-14T21:34:04.155Z,911.00
2023-03-14T21:39:02.295Z,917.00
2023-03-14T21:44:01.476Z,914.00
2023-03-14T21:49:01.662Z,919.00
2023-03-14T21:54:00.811Z,928.00
2023-03-14T21:59:01.144Z,987.00
2023-03-14T22:03:59.279Z,1000.00
2023-03-14T22:08:57.451Z,1067.00
2023-03-14T22:13:56.612Z,1007.00
2023-03-14T22:18:57.780Z,1008.00
2023-03-14T22:23:55.925Z,1053.00
2023-03-14T22:28:55.115Z,1042.00
2023-03-14T22:33:54.289Z,1068.00
2023-03-14T22:38:54.450Z,1039.00
2023-03-14T22:43:52.621Z,1047.00
2023-03-14T22:48:50.766Z,1008.00
2023-03-14T22:53:50.939Z,1001.00
2023-03-14T22:58:50.082Z,990.00
2023-03-14T23:03:49.213Z,972.00
2023-03-14T23:08:48.560Z,956.00
2023-03-14T23:13:48.415Z,969.00
2023-03-14T23:18:47.892Z,958.00
2023-03-14T23:23:45.055Z,972.00
2023-03-14T23:28:44.233Z,953.00
2023-03-14T23:33:44.394Z,945.00
2023-03-14T23:38:42.545Z,946.00
2023-03-14T23:43:41.707Z,925.00
2023-03-14T23:48:41.885Z,946.00
2023-03-14T23:53:41.026Z,904.00
2023-03-14T23:58:41.198Z,928.00
